createdAt,value
2022-07-31T00:00:50.322Z,0.00
2022-07-31T00:01:50.306Z,0.00
2022-07-31T00:02:50.307Z,0.00
2022-07-31T00:03:50.407Z,0.00
2022-07-31T00:04:50.273Z,0.00
2022-07-31T00:05:50.258Z,0.00
2022-07-31T00:06:51.237Z,0.00
2022-07-31T00:07:50.256Z,0.00
2022-07-31T00:08:50.226Z,0.00
2022-07-31T00:09:54.146Z,0.00
2022-07-31T00:10:50.231Z,0.00
2022-07-31T00:11:50.253Z,0.00
2022-07-31T00:12:51.621Z,0.00
2022-07-31T00:13:57.456Z,0.00
2022-07-31T00:14:51.155Z,0.00
2022-07-31T00:15:50.150Z,0.00
2022-07-31T00:16:50.184Z,0.00
2022-07-31T00:17:50.128Z,0.00
2022-07-31T00:18:50.121Z,0.00
2022-07-31T00:19:50.107Z,0.00
2022-07-31T00:20:50.098Z,0.00
2022-07-31T00:21:50.081Z,0.00
2022-07-31T00:22:50.091Z,0.00
2022-07-31T00:23:50.161Z,0.00
2022-07-31T00:24:50.052Z,0.00
2022-07-31T00:25:50.038Z,0.00
2022-07-31T00:26:52.885Z,0.00
2022-07-31T00:27:50.033Z,0.00
2022-07-31T00:28:50.008Z,0.00
2022-07-31T00:29:50.223Z,0.00
2022-07-31T00:30:49.982Z,0.00
2022-07-31T00:31:49.973Z,0.00
2022-07-31T00:32:51.875Z,0.00
2022-07-31T00:33:49.963Z,0.00
2022-07-31T00:34:49.943Z,0.00
2022-07-31T00:35:49.928Z,0.00
2022-07-31T00:36:49.919Z,0.00
2022-07-31T00:37:52.264Z,0.00
2022-07-31T00:38:49.894Z,0.00
2022-07-31T00:39:49.884Z,0.00
2022-07-31T00:40:49.873Z,0.00
2022-07-31T00:41:49.862Z,0.00
2022-07-31T00:42:49.902Z,0.00
2022-07-31T00:43:49.833Z,0.00
2022-07-31T00:44:49.851Z,0.00
2022-07-31T00:45:56.322Z,0.00
2022-07-31T00:46:50.810Z,0.00
2022-07-31T00:47:49.815Z,0.00
2022-07-31T00:48:51.041Z,0.00
2022-07-31T00:49:49.786Z,0.00
2022-07-31T00:50:49.759Z,0.00
2022-07-31T00:51:49.748Z,0.00
2022-07-31T00:52:49.879Z,0.00
2022-07-31T00:53:49.741Z,0.00
2022-07-31T00:54:49.718Z,0.00
2022-07-31T00:55:51.422Z,0.00
2022-07-31T00:56:49.693Z,0.00
2022-07-31T00:57:49.677Z,0.00
2022-07-31T00:58:49.685Z,0.00
2022-07-31T00:59:50.256Z,0.00
2022-07-31T01:00:49.708Z,0.00
2022-07-31T01:01:49.635Z,0.00
2022-07-31T01:02:49.659Z,0.00
2022-07-31T01:03:50.252Z,0.00
2022-07-31T01:04:49.609Z,0.00
2022-07-31T01:05:49.608Z,0.00
2022-07-31T01:06:49.582Z,0.00
2022-07-31T01:07:49.586Z,0.00
2022-07-31T01:08:49.580Z,0.00
2022-07-31T01:09:49.550Z,0.00
2022-07-31T01:10:49.538Z,0.00
2022-07-31T01:11:50.081Z,0.00
2022-07-31T01:12:53.847Z,0.00
2022-07-31T01:13:49.519Z,0.00
2022-07-31T01:14:49.506Z,0.00
2022-07-31T01:15:49.485Z,0.00
2022-07-31T01:16:49.468Z,0.00
2022-07-31T01:17:49.457Z,0.00
2022-07-31T01:18:49.463Z,0.00
2022-07-31T01:19:49.446Z,0.00
2022-07-31T01:20:49.810Z,0.00
2022-07-31T01:21:49.413Z,0.00
2022-07-31T01:22:49.404Z,0.00
2022-07-31T01:23:51.014Z,0.00
2022-07-31T01:24:50.468Z,0.00
2022-07-31T01:25:49.370Z,0.00
2022-07-31T01:26:49.361Z,0.00
2022-07-31T01:27:50.106Z,0.00
2022-07-31T01:28:49.352Z,0.00
2022-07-31T01:29:49.324Z,0.00
2022-07-31T01:30:53.031Z,0.00
2022-07-31T01:31:50.375Z,0.00
2022-07-31T01:32:49.294Z,0.00
2022-07-31T01:33:49.299Z,0.00
2022-07-31T01:34:49.276Z,0.00
2022-07-31T01:35:49.261Z,0.00
2022-07-31T01:36:49.276Z,0.00
2022-07-31T01:37:49.494Z,0.00
2022-07-31T01:38:49.245Z,0.00
2022-07-31T01:39:49.215Z,0.00
2022-07-31T01:40:49.229Z,0.00
2022-07-31T01:41:49.210Z,0.00
2022-07-31T01:42:49.212Z,0.00
2022-07-31T01:43:49.185Z,0.00
2022-07-31T01:44:49.162Z,0.00
2022-07-31T01:45:49.162Z,0.00
2022-07-31T01:46:49.187Z,0.00
2022-07-31T01:47:49.123Z,0.00
2022-07-31T01:48:49.359Z,0.00
2022-07-31T01:49:49.130Z,0.00
2022-07-31T01:50:49.091Z,0.00
2022-07-31T01:51:49.085Z,0.00
2022-07-31T01:52:49.194Z,0.00
2022-07-31T01:53:49.060Z,0.00
2022-07-31T01:54:49.401Z,0.00
2022-07-31T01:56:02.004Z,0.00
2022-07-31T01:56:50.030Z,0.00
2022-07-31T01:57:49.017Z,0.00
2022-07-31T01:58:49.011Z,0.00
2022-07-31T01:59:49.016Z,0.00
2022-07-31T02:00:49.093Z,0.00
2022-07-31T02:01:49.030Z,0.00
2022-07-31T02:02:48.966Z,0.00
2022-07-31T02:03:51.400Z,0.00
2022-07-31T02:04:49.942Z,0.00
2022-07-31T02:05:49.296Z,0.00
2022-07-31T02:06:48.919Z,0.00
2022-07-31T02:07:48.905Z,0.00
2022-07-31T02:08:58.292Z,0.00
2022-07-31T02:09:58.039Z,0.00
2022-07-31T02:10:49.870Z,0.00
2022-07-31T02:11:54.654Z,0.00
2022-07-31T02:12:49.856Z,0.00
2022-07-31T02:13:48.839Z,0.00
2022-07-31T02:14:48.832Z,0.00
2022-07-31T02:15:48.833Z,0.00
2022-07-31T02:16:48.809Z,0.00
2022-07-31T02:17:48.794Z,0.00
2022-07-31T02:18:48.782Z,0.00
2022-07-31T02:19:59.737Z,0.00
2022-07-31T02:20:49.784Z,0.00
2022-07-31T02:21:48.762Z,0.00
2022-07-31T02:22:48.774Z,0.00
2022-07-31T02:23:48.730Z,0.00
2022-07-31T02:24:48.717Z,0.00
2022-07-31T02:25:48.745Z,0.00
2022-07-31T02:26:49.467Z,0.00
2022-07-31T02:27:55.520Z,0.00
2022-07-31T02:28:50.266Z,0.00
2022-07-31T02:29:48.659Z,0.00
2022-07-31T02:30:48.656Z,0.00
2022-07-31T02:32:03.027Z,0.00
2022-07-31T02:32:49.658Z,0.00
2022-07-31T02:33:48.625Z,0.00
2022-07-31T02:34:48.668Z,0.00
2022-07-31T02:35:48.616Z,0.00
2022-07-31T02:36:48.589Z,0.00
2022-07-31T02:37:48.580Z,0.00
2022-07-31T02:38:48.562Z,0.00
2022-07-31T02:39:48.552Z,0.00
2022-07-31T02:40:48.559Z,0.00
2022-07-31T02:41:48.544Z,0.00
2022-07-31T02:42:48.530Z,0.00
2022-07-31T02:43:49.770Z,0.00
2022-07-31T02:44:48.518Z,0.00
2022-07-31T02:45:48.493Z,0.00
2022-07-31T02:46:48.492Z,0.00
2022-07-31T02:47:48.463Z,4.00
2022-07-31T02:48:48.468Z,4.00
2022-07-31T02:49:48.447Z,4.00
2022-07-31T02:50:48.429Z,0.00
2022-07-31T02:51:48.436Z,4.00
2022-07-31T02:52:49.281Z,4.00
2022-07-31T02:53:48.408Z,8.00
2022-07-31T02:54:48.388Z,4.00
2022-07-31T02:55:48.499Z,8.00
2022-07-31T02:56:48.366Z,8.00
2022-07-31T02:57:48.365Z,8.00
2022-07-31T02:58:48.343Z,8.00
2022-07-31T02:59:48.330Z,12.00
2022-07-31T03:00:48.376Z,12.00
2022-07-31T03:01:48.328Z,16.00
2022-07-31T03:02:48.446Z,16.00
2022-07-31T03:03:48.821Z,20.00
2022-07-31T03:04:48.308Z,24.00
2022-07-31T03:05:48.285Z,28.00
2022-07-31T03:06:48.274Z,28.00
2022-07-31T03:07:48.246Z,32.00
2022-07-31T03:08:48.230Z,36.00
2022-07-31T03:09:48.223Z,40.00
2022-07-31T03:10:48.215Z,48.00
2022-07-31T03:11:48.206Z,52.00
2022-07-31T03:12:48.207Z,56.00
2022-07-31T03:13:48.182Z,68.00
2022-07-31T03:14:48.184Z,72.00
2022-07-31T03:15:51.078Z,80.00
2022-07-31T03:16:48.144Z,88.00
2022-07-31T03:17:48.132Z,96.00
2022-07-31T03:18:48.123Z,108.00
2022-07-31T03:19:48.121Z,120.00
2022-07-31T03:20:48.096Z,128.00
2022-07-31T03:21:48.371Z,140.00
2022-07-31T03:22:48.106Z,156.00
2022-07-31T03:23:48.067Z,168.00
2022-07-31T03:24:48.086Z,184.00
2022-07-31T03:25:48.047Z,196.00
2022-07-31T03:26:48.052Z,216.00
2022-07-31T03:27:52.386Z,232.00
2022-07-31T03:28:49.011Z,248.00
2022-07-31T03:29:48.002Z,268.00
2022-07-31T03:30:47.985Z,288.00
2022-07-31T03:31:48.006Z,304.00
2022-07-31T03:32:47.970Z,324.00
2022-07-31T03:33:47.980Z,348.00
2022-07-31T03:34:48.372Z,372.00
2022-07-31T03:35:47.936Z,400.00
2022-07-31T03:36:47.930Z,428.00
2022-07-31T03:37:47.931Z,452.00
2022-07-31T03:38:50.578Z,484.00
2022-07-31T03:39:47.895Z,512.00
2022-07-31T03:40:47.878Z,544.00
2022-07-31T03:41:47.892Z,580.00
2022-07-31T03:42:47.856Z,620.00
2022-07-31T03:43:48.683Z,660.00
2022-07-31T03:44:47.836Z,696.00
2022-07-31T03:45:47.828Z,728.00
2022-07-31T03:46:47.827Z,764.00
2022-07-31T03:47:47.803Z,796.00
2022-07-31T03:48:47.943Z,828.00
2022-07-31T03:49:47.800Z,860.00
2022-07-31T03:50:47.764Z,896.00
2022-07-31T03:51:48.389Z,924.00
2022-07-31T03:52:47.741Z,960.00
2022-07-31T03:53:47.743Z,992.00
2022-07-31T03:54:47.724Z,1024.00
2022-07-31T03:55:47.786Z,1060.00
2022-07-31T03:56:47.714Z,1096.00
2022-07-31T03:57:47.747Z,1128.00
2022-07-31T03:58:51.506Z,1164.00
2022-07-31T03:59:48.399Z,1196.00
2022-07-31T04:00:47.651Z,1236.00
2022-07-31T04:01:57.622Z,1264.00
2022-07-31T04:02:48.745Z,1296.00
2022-07-31T04:03:47.623Z,1332.00
2022-07-31T04:04:47.640Z,1364.00
2022-07-31T04:05:47.614Z,1400.00
2022-07-31T04:06:47.590Z,1436.00
2022-07-31T04:07:47.587Z,1468.00
2022-07-31T04:08:47.627Z,1500.00
2022-07-31T04:09:47.559Z,1536.00
2022-07-31T04:10:47.567Z,1572.00
2022-07-31T04:11:47.695Z,1608.00
2022-07-31T04:12:47.554Z,1640.00
2022-07-31T04:13:47.543Z,1672.00
2022-07-31T04:14:47.526Z,1708.00
2022-07-31T04:15:47.486Z,1740.00
2022-07-31T04:16:47.495Z,1772.00
2022-07-31T04:17:47.470Z,1808.00
2022-07-31T04:18:50.915Z,1840.00
2022-07-31T04:19:47.523Z,1876.00
2022-07-31T04:20:47.432Z,1908.00
2022-07-31T04:21:47.423Z,1944.00
2022-07-31T04:22:47.411Z,1980.00
2022-07-31T04:23:49.937Z,2016.00
2022-07-31T04:24:47.397Z,2052.00
2022-07-31T04:25:47.391Z,2088.00
2022-07-31T04:26:47.372Z,2124.00
2022-07-31T04:27:48.502Z,2156.00
2022-07-31T04:28:47.353Z,2188.00
2022-07-31T04:29:47.337Z,2224.00
2022-07-31T04:30:47.340Z,2252.00
2022-07-31T04:31:47.307Z,2284.00
2022-07-31T04:32:47.298Z,2312.00
2022-07-31T04:33:48.347Z,2348.00
2022-07-31T04:34:47.374Z,2380.00
2022-07-31T04:35:47.276Z,2412.00
2022-07-31T04:36:47.807Z,2444.00
2022-07-31T04:37:48.572Z,2480.00
2022-07-31T04:38:47.233Z,2516.00
2022-07-31T04:39:47.239Z,2548.00
2022-07-31T04:40:47.305Z,2580.00
2022-07-31T04:41:47.202Z,2612.00
2022-07-31T04:42:47.223Z,2644.00
2022-07-31T04:43:47.177Z,2680.00
2022-07-31T04:44:47.178Z,2712.00
2022-07-31T04:45:47.155Z,2744.00
2022-07-31T04:46:47.145Z,2776.00
2022-07-31T04:47:47.136Z,2808.00
2022-07-31T04:48:47.205Z,2836.00
2022-07-31T04:49:47.130Z,2864.00
2022-07-31T04:50:47.106Z,2896.00
2022-07-31T04:51:47.097Z,2932.00
2022-07-31T04:52:47.073Z,2964.00
2022-07-31T04:53:47.289Z,2992.00
2022-07-31T04:54:47.076Z,3028.00
2022-07-31T04:55:47.047Z,3060.00
2022-07-31T04:56:47.034Z,3084.00
2022-07-31T04:57:47.237Z,3116.00
2022-07-31T04:58:47.012Z,3148.00
2022-07-31T05:00:00.118Z,3184.00
2022-07-31T05:00:47.985Z,3216.00
2022-07-31T05:01:47.081Z,3252.00
2022-07-31T05:02:47.984Z,3284.00
2022-07-31T05:03:46.961Z,3312.00
2022-07-31T05:04:46.962Z,3348.00
2022-07-31T05:05:47.943Z,3376.00
2022-07-31T05:06:46.922Z,3404.00
2022-07-31T05:07:46.912Z,3436.00
2022-07-31T05:08:46.993Z,3468.00
2022-07-31T05:09:46.908Z,3500.00
2022-07-31T05:10:46.877Z,3532.00
2022-07-31T05:11:46.868Z,3572.00
2022-07-31T05:12:46.918Z,3608.00
2022-07-31T05:13:46.856Z,3648.00
2022-07-31T05:14:47.819Z,3684.00
2022-07-31T05:15:46.825Z,3724.00
2022-07-31T05:16:46.810Z,3764.00
2022-07-31T05:17:46.800Z,3804.00
2022-07-31T05:18:46.791Z,3844.00
2022-07-31T05:19:46.791Z,3884.00
2022-07-31T05:20:46.764Z,3924.00
2022-07-31T05:21:53.192Z,3956.00
2022-07-31T05:22:47.743Z,3996.00
2022-07-31T05:23:46.773Z,4032.00
2022-07-31T05:24:46.725Z,4068.00
2022-07-31T05:25:47.362Z,4104.00
2022-07-31T05:26:46.702Z,4132.00
2022-07-31T05:27:46.690Z,4164.00
2022-07-31T05:28:46.858Z,4196.00
2022-07-31T05:29:46.669Z,4232.00
2022-07-31T05:30:46.716Z,4268.00
2022-07-31T05:31:59.996Z,4304.00
2022-07-31T05:32:47.638Z,4344.00
2022-07-31T05:33:46.641Z,4376.00
2022-07-31T05:34:46.615Z,4412.00
2022-07-31T05:35:46.601Z,4444.00
2022-07-31T05:36:46.603Z,4480.00
2022-07-31T05:37:46.576Z,4512.00
2022-07-31T05:38:46.584Z,4544.00
2022-07-31T05:39:46.574Z,4576.00
2022-07-31T05:40:46.556Z,4604.00
2022-07-31T05:41:46.541Z,4640.00
2022-07-31T05:42:46.531Z,4672.00
2022-07-31T05:43:46.519Z,4708.00
2022-07-31T05:44:46.895Z,4748.00
2022-07-31T05:45:46.506Z,4792.00
2022-07-31T05:46:46.481Z,4836.00
2022-07-31T05:47:46.478Z,4884.00
2022-07-31T05:48:46.997Z,4932.00
2022-07-31T05:49:46.465Z,4984.00
2022-07-31T05:50:46.434Z,5040.00
2022-07-31T05:51:46.462Z,5096.00
2022-07-31T05:52:46.410Z,5152.00
2022-07-31T05:53:46.434Z,5216.00
2022-07-31T05:54:46.402Z,5280.00
2022-07-31T05:55:46.381Z,5344.00
2022-07-31T05:56:46.380Z,5408.00
2022-07-31T05:57:46.366Z,5476.00
2022-07-31T05:58:48.268Z,5580.00
2022-07-31T05:59:46.355Z,5720.00
2022-07-31T06:00:46.324Z,5860.00
2022-07-31T06:01:46.572Z,5984.00
2022-07-31T06:02:46.303Z,6112.00
2022-07-31T06:03:51.722Z,6240.00
2022-07-31T06:04:47.297Z,6372.00
2022-07-31T06:05:46.642Z,6512.00
2022-07-31T06:06:46.254Z,6660.00
2022-07-31T06:07:52.007Z,6812.00
2022-07-31T06:08:47.237Z,6956.00
2022-07-31T06:09:46.308Z,7084.00
2022-07-31T06:10:46.218Z,7212.00
2022-07-31T06:11:46.208Z,7352.00
2022-07-31T06:12:46.190Z,7492.00
2022-07-31T06:13:46.187Z,7620.00
2022-07-31T06:14:46.169Z,7756.00
2022-07-31T06:15:49.391Z,7880.00
2022-07-31T06:16:46.167Z,8012.00
2022-07-31T06:17:46.141Z,8172.00
2022-07-31T06:18:46.134Z,8304.00
2022-07-31T06:19:46.120Z,8456.00
2022-07-31T06:20:46.119Z,8596.00
2022-07-31T06:21:46.110Z,8772.00
2022-07-31T06:22:46.301Z,8944.00
2022-07-31T06:23:46.068Z,9112.00
2022-07-31T06:24:46.063Z,9260.00
2022-07-31T06:25:46.070Z,9476.00
2022-07-31T06:26:46.043Z,9648.00
2022-07-31T06:27:50.903Z,9792.00
2022-07-31T06:28:48.662Z,9928.00
2022-07-31T06:29:46.010Z,10032.00
2022-07-31T06:30:45.996Z,10156.00
2022-07-31T06:31:46.000Z,10280.00
2022-07-31T06:32:45.976Z,10392.00
2022-07-31T06:33:48.315Z,10504.00
2022-07-31T06:34:45.945Z,10628.00
2022-07-31T06:35:45.954Z,10748.00
2022-07-31T06:36:45.939Z,10900.00
2022-07-31T06:37:45.919Z,11072.00
2022-07-31T06:38:46.030Z,11224.00
2022-07-31T06:39:54.651Z,11400.00
2022-07-31T06:40:46.879Z,11544.00
2022-07-31T06:41:45.889Z,11724.00
2022-07-31T06:42:45.861Z,11896.00
2022-07-31T06:43:45.852Z,12048.00
2022-07-31T06:44:46.505Z,12208.00
2022-07-31T06:45:51.295Z,12368.00
2022-07-31T06:46:49.186Z,12504.00
2022-07-31T06:47:45.805Z,12644.00
2022-07-31T06:48:45.805Z,12784.00
2022-07-31T06:49:45.842Z,12952.00
2022-07-31T06:50:45.775Z,13136.00
2022-07-31T06:51:45.778Z,13336.00
2022-07-31T06:52:45.765Z,13544.00
2022-07-31T06:53:45.747Z,13800.00
2022-07-31T06:54:45.750Z,14112.00
2022-07-31T06:55:45.735Z,14504.00
2022-07-31T06:56:46.463Z,14960.00
2022-07-31T06:57:45.698Z,15548.00
2022-07-31T06:58:45.696Z,16544.00
2022-07-31T06:59:45.688Z,18176.00
2022-07-31T07:00:45.673Z,22592.00
2022-07-31T07:01:45.672Z,30848.00
2022-07-31T07:02:45.645Z,38688.00
2022-07-31T07:03:45.629Z,42400.00
2022-07-31T07:05:04.950Z,44480.00
2022-07-31T07:05:46.607Z,46048.00
2022-07-31T07:06:45.604Z,46944.00
2022-07-31T07:07:45.588Z,47680.00
2022-07-31T07:08:45.581Z,48480.00
2022-07-31T07:09:45.800Z,48896.00
2022-07-31T07:10:45.572Z,49664.00
2022-07-31T07:11:45.550Z,50080.00
2022-07-31T07:12:45.536Z,50208.00
2022-07-31T07:13:46.974Z,50368.00
2022-07-31T07:14:45.517Z,50688.00
2022-07-31T07:15:45.527Z,51168.00
2022-07-31T07:16:45.496Z,51808.00
2022-07-31T07:17:45.482Z,52576.00
2022-07-31T07:18:45.469Z,53056.00
2022-07-31T07:19:45.459Z,53536.00
2022-07-31T07:20:45.463Z,53664.00
2022-07-31T07:21:45.456Z,54080.00
2022-07-31T07:22:45.430Z,54592.00
2022-07-31T07:23:45.420Z,55136.00
2022-07-31T07:24:45.411Z,55904.00
2022-07-31T07:25:45.412Z,56448.00
2022-07-31T07:26:45.906Z,57664.00
2022-07-31T07:27:45.379Z,58208.00
2022-07-31T07:28:45.405Z,58720.00
2022-07-31T07:29:45.355Z,58976.00
2022-07-31T07:30:45.534Z,59456.00
2022-07-31T07:31:45.329Z,59936.00
2022-07-31T07:32:45.332Z,60448.00
2022-07-31T07:33:45.322Z,61056.00
2022-07-31T07:34:45.338Z,61760.00
2022-07-31T07:35:45.311Z,62496.00
2022-07-31T07:36:45.286Z,63008.00
2022-07-31T07:37:45.268Z,63360.00
2022-07-31T07:38:45.266Z,64096.00
2022-07-31T07:39:45.254Z,64064.00
2022-07-31T07:40:45.261Z,64640.00
2022-07-31T07:41:45.230Z,65568.00
2022-07-31T07:42:45.225Z,66048.00
2022-07-31T07:43:45.740Z,66816.00
2022-07-31T07:44:46.200Z,69344.00
2022-07-31T07:45:46.763Z,71200.00
2022-07-31T07:46:45.177Z,72608.00
2022-07-31T07:47:53.842Z,72896.00
2022-07-31T07:48:46.236Z,73760.00
2022-07-31T07:49:45.154Z,73952.00
2022-07-31T07:50:45.143Z,75104.00
2022-07-31T07:51:59.528Z,76192.00
2022-07-31T07:52:46.140Z,76896.00
2022-07-31T07:53:45.129Z,77504.00
2022-07-31T07:54:45.102Z,77792.00
2022-07-31T07:55:45.087Z,78016.00
2022-07-31T07:56:45.078Z,78912.00
2022-07-31T07:57:45.068Z,79872.00
2022-07-31T07:58:45.079Z,79936.00
2022-07-31T07:59:45.049Z,79840.00
2022-07-31T08:00:45.126Z,80064.00
2022-07-31T08:01:45.029Z,80544.00
2022-07-31T08:03:47.108Z,80672.00
2022-07-31T08:03:48.520Z,81344.00
2022-07-31T08:04:47.599Z,81536.00
2022-07-31T08:05:45.035Z,81824.00
2022-07-31T08:06:45.063Z,82560.00
2022-07-31T08:07:45.924Z,83680.00
2022-07-31T08:08:53.957Z,84384.00
2022-07-31T08:09:44.952Z,85376.00
2022-07-31T08:10:44.959Z,86400.00
2022-07-31T08:11:44.926Z,87360.00
2022-07-31T08:12:44.950Z,88320.00
2022-07-31T08:13:49.662Z,88992.00
2022-07-31T08:14:45.903Z,89440.00
2022-07-31T08:15:44.893Z,89440.00
2022-07-31T08:16:44.884Z,89152.00
2022-07-31T08:17:44.874Z,89760.00
2022-07-31T08:18:44.884Z,89824.00
2022-07-31T08:19:49.466Z,91680.00
2022-07-31T08:20:45.846Z,92800.00
2022-07-31T08:21:44.831Z,93216.00
2022-07-31T08:22:44.851Z,93632.00
2022-07-31T08:23:44.975Z,94336.00
2022-07-31T08:24:44.812Z,94784.00
2022-07-31T08:25:44.795Z,94784.00
2022-07-31T08:26:44.791Z,95168.00
2022-07-31T08:27:44.792Z,95424.00
2022-07-31T08:28:49.956Z,95968.00
2022-07-31T08:29:46.004Z,96064.00
2022-07-31T08:30:44.749Z,96480.00
2022-07-31T08:31:49.546Z,96192.00
2022-07-31T08:32:44.731Z,96256.00
2022-07-31T08:33:44.719Z,97536.00
2022-07-31T08:34:44.722Z,97024.00
2022-07-31T08:35:47.488Z,96352.00
2022-07-31T08:36:45.696Z,95936.00
2022-07-31T08:38:01.253Z,95744.00
2022-07-31T08:38:45.675Z,96608.00
2022-07-31T08:39:44.661Z,96864.00
2022-07-31T08:40:44.782Z,97568.00
2022-07-31T08:41:44.647Z,98304.00
2022-07-31T08:42:44.682Z,98816.00
2022-07-31T08:44:02.063Z,98912.00
2022-07-31T08:44:45.617Z,98080.00
2022-07-31T08:45:44.611Z,97088.00
2022-07-31T08:46:44.616Z,97024.00
2022-07-31T08:47:44.588Z,96928.00
2022-07-31T08:48:44.586Z,98336.00
2022-07-31T08:49:44.574Z,98496.00
2022-07-31T08:50:44.570Z,99200.00
2022-07-31T08:52:01.798Z,100256.00
2022-07-31T08:52:45.548Z,99360.00
2022-07-31T08:53:44.543Z,99616.00
2022-07-31T08:54:44.526Z,99840.00
2022-07-31T08:55:57.050Z,99648.00
2022-07-31T08:56:45.526Z,98688.00
2022-07-31T08:57:44.499Z,99872.00
2022-07-31T08:58:44.490Z,99552.00
2022-07-31T08:59:44.544Z,97920.00
2022-07-31T09:00:44.510Z,98368.00
2022-07-31T09:01:44.519Z,97440.00
2022-07-31T09:02:44.456Z,97792.00
2022-07-31T09:03:44.445Z,97824.00
2022-07-31T09:04:44.437Z,97664.00
2022-07-31T09:05:44.444Z,98304.00
2022-07-31T09:06:44.418Z,98560.00
2022-07-31T09:07:44.432Z,98272.00
2022-07-31T09:08:44.403Z,98624.00
2022-07-31T09:09:50.895Z,98496.00
2022-07-31T09:10:49.825Z,98976.00
2022-07-31T09:11:44.391Z,99648.00
2022-07-31T09:12:44.443Z,99232.00
2022-07-31T09:13:44.383Z,98976.00
2022-07-31T09:14:45.348Z,99456.00
2022-07-31T09:15:44.387Z,100096.00
2022-07-31T09:16:44.967Z,100992.00
2022-07-31T09:17:53.905Z,101856.00
2022-07-31T09:18:45.310Z,101888.00
2022-07-31T09:19:53.834Z,102976.00
2022-07-31T09:20:45.488Z,102336.00
2022-07-31T09:21:44.284Z,101600.00
2022-07-31T09:22:44.274Z,102816.00
2022-07-31T09:23:44.265Z,102528.00
2022-07-31T09:24:44.265Z,102944.00
2022-07-31T09:25:44.264Z,102304.00
2022-07-31T09:26:44.245Z,101280.00
2022-07-31T09:27:44.248Z,102880.00
2022-07-31T09:28:44.225Z,102720.00
2022-07-31T09:29:44.217Z,102368.00
2022-07-31T09:30:56.526Z,102656.00
2022-07-31T09:31:45.198Z,103392.00
2022-07-31T09:32:44.195Z,104896.00
2022-07-31T09:33:45.916Z,105728.00
2022-07-31T09:34:44.175Z,104128.00
2022-07-31T09:35:44.180Z,104576.00
2022-07-31T09:36:44.158Z,104288.00
2022-07-31T09:37:44.148Z,102720.00
2022-07-31T09:38:44.139Z,102912.00
2022-07-31T09:39:52.117Z,101888.00
2022-07-31T09:40:56.757Z,102912.00
2022-07-31T09:42:00.897Z,104032.00
2022-07-31T09:42:45.976Z,103360.00
2022-07-31T09:43:51.623Z,103776.00
2022-07-31T09:44:45.087Z,104128.00
2022-07-31T09:45:48.567Z,104064.00
2022-07-31T09:46:44.074Z,103520.00
2022-07-31T09:47:44.073Z,103904.00
2022-07-31T09:48:44.179Z,103584.00
2022-07-31T09:49:44.045Z,103552.00
2022-07-31T09:50:44.381Z,103488.00
2022-07-31T09:51:44.027Z,103776.00
2022-07-31T09:52:44.082Z,103712.00
2022-07-31T09:53:44.031Z,103392.00
2022-07-31T09:54:44.012Z,102784.00
2022-07-31T09:55:43.996Z,102464.00
2022-07-31T09:56:44.003Z,102400.00
2022-07-31T09:57:50.128Z,103296.00
2022-07-31T09:58:44.986Z,104448.00
2022-07-31T09:59:43.974Z,104000.00
2022-07-31T10:00:44.046Z,103872.00
2022-07-31T10:01:43.947Z,103136.00
2022-07-31T10:02:44.000Z,102720.00
2022-07-31T10:03:43.953Z,104000.00
2022-07-31T10:04:43.925Z,103456.00
2022-07-31T10:05:43.913Z,102944.00
2022-07-31T10:06:43.906Z,103584.00
2022-07-31T10:07:44.052Z,103328.00
2022-07-31T10:08:43.887Z,103008.00
2022-07-31T10:09:44.438Z,103520.00
2022-07-31T10:10:43.874Z,104160.00
2022-07-31T10:11:43.861Z,104576.00
2022-07-31T10:12:43.968Z,104256.00
2022-07-31T10:13:43.851Z,104576.00
2022-07-31T10:14:43.843Z,103808.00
2022-07-31T10:15:43.832Z,104992.00
2022-07-31T10:16:43.828Z,104512.00
2022-07-31T10:17:44.479Z,105984.00
2022-07-31T10:18:44.785Z,106976.00
2022-07-31T10:19:44.473Z,107392.00
2022-07-31T10:20:43.857Z,107648.00
2022-07-31T10:21:43.788Z,106624.00
2022-07-31T10:22:43.798Z,107040.00
2022-07-31T10:23:43.768Z,106912.00
2022-07-31T10:24:43.763Z,106592.00
2022-07-31T10:25:43.753Z,106112.00
2022-07-31T10:27:00.151Z,105536.00
2022-07-31T10:27:44.757Z,106464.00
2022-07-31T10:28:43.742Z,103264.00
2022-07-31T10:29:43.719Z,104192.00
2022-07-31T10:30:43.715Z,104416.00
2022-07-31T10:31:43.722Z,107104.00
2022-07-31T10:32:43.696Z,108224.00
2022-07-31T10:33:44.939Z,109152.00
2022-07-31T10:34:43.686Z,109568.00
2022-07-31T10:35:43.677Z,109056.00
2022-07-31T10:36:44.686Z,108480.00
2022-07-31T10:37:43.846Z,109024.00
2022-07-31T10:38:43.652Z,106464.00
2022-07-31T10:39:43.898Z,108768.00
2022-07-31T10:40:43.651Z,108928.00
2022-07-31T10:41:43.628Z,108320.00
2022-07-31T10:42:43.621Z,107136.00
2022-07-31T10:43:43.630Z,107744.00
2022-07-31T10:44:43.622Z,110144.00
2022-07-31T10:45:44.439Z,108416.00
2022-07-31T10:46:43.611Z,106912.00
2022-07-31T10:47:47.971Z,107296.00
2022-07-31T10:48:44.578Z,108864.00
2022-07-31T10:49:43.712Z,109408.00
2022-07-31T10:50:43.558Z,110144.00
2022-07-31T10:51:43.567Z,111488.00
2022-07-31T10:52:43.540Z,111296.00
2022-07-31T10:53:51.146Z,110944.00
2022-07-31T10:54:44.542Z,112000.00
2022-07-31T10:55:43.538Z,111104.00
2022-07-31T10:56:43.958Z,110944.00
2022-07-31T10:57:57.315Z,109248.00
2022-07-31T10:58:44.494Z,109728.00
2022-07-31T10:59:44.874Z,110208.00
2022-07-31T11:00:43.475Z,110816.00
2022-07-31T11:01:43.570Z,110080.00
2022-07-31T11:02:44.460Z,110208.00
2022-07-31T11:03:43.452Z,107552.00
2022-07-31T11:04:43.448Z,107072.00
2022-07-31T11:06:02.306Z,108416.00
2022-07-31T11:06:44.799Z,109248.00
2022-07-31T11:07:43.424Z,111104.00
2022-07-31T11:08:43.413Z,110784.00
2022-07-31T11:09:50.599Z,110592.00
2022-07-31T11:10:44.412Z,110624.00
2022-07-31T11:11:43.395Z,111232.00
2022-07-31T11:12:43.382Z,110144.00
2022-07-31T11:13:43.381Z,109600.00
2022-07-31T11:14:43.389Z,111584.00
2022-07-31T11:15:43.379Z,110944.00
2022-07-31T11:16:43.353Z,110304.00
2022-07-31T11:18:23.520Z,109792.00
2022-07-31T11:18:44.347Z,109600.00
2022-07-31T11:19:43.332Z,109888.00
2022-07-31T11:20:43.335Z,110144.00
2022-07-31T11:21:43.313Z,109280.00
2022-07-31T11:22:43.306Z,107072.00
2022-07-31T11:24:02.034Z,105280.00
2022-07-31T11:24:44.309Z,101568.00
2022-07-31T11:25:43.281Z,96576.00
2022-07-31T11:26:43.271Z,99968.00
2022-07-31T11:27:43.273Z,102048.00
2022-07-31T11:28:43.274Z,102496.00
2022-07-31T11:30:00.935Z,100704.00
2022-07-31T11:30:44.239Z,95776.00
2022-07-31T11:31:43.243Z,92448.00
2022-07-31T11:32:43.247Z,95360.00
2022-07-31T11:33:43.244Z,97024.00
2022-07-31T11:34:43.256Z,96160.00
2022-07-31T11:35:43.209Z,95808.00
2022-07-31T11:36:43.221Z,80160.00
2022-07-31T11:37:56.981Z,85920.00
2022-07-31T11:38:44.771Z,27552.00
2022-07-31T11:39:51.213Z,25376.00
2022-07-31T11:40:44.166Z,24448.00
2022-07-31T11:41:44.586Z,24800.00
2022-07-31T11:42:43.165Z,100000.00
2022-07-31T11:43:43.162Z,98560.00
2022-07-31T11:44:43.134Z,98048.00
2022-07-31T11:45:43.126Z,97824.00
2022-07-31T11:46:43.113Z,96960.00
2022-07-31T11:48:12.039Z,90784.00
2022-07-31T11:48:45.650Z,88864.00
2022-07-31T11:49:48.712Z,90560.00
2022-07-31T11:50:44.081Z,90400.00
2022-07-31T11:51:43.094Z,89312.00
2022-07-31T11:52:43.063Z,84960.00
2022-07-31T11:53:43.228Z,83456.00
2022-07-31T11:54:43.046Z,77632.00
2022-07-31T11:55:43.040Z,80672.00
2022-07-31T11:56:43.027Z,78816.00
2022-07-31T11:57:50.923Z,84576.00
2022-07-31T11:58:44.007Z,94656.00
2022-07-31T11:59:46.417Z,101120.00
2022-07-31T12:00:43.993Z,105376.00
2022-07-31T12:01:42.988Z,100704.00
2022-07-31T12:02:43.042Z,99296.00
2022-07-31T12:03:42.974Z,98240.00
2022-07-31T12:04:42.969Z,99008.00
2022-07-31T12:05:42.956Z,102368.00
2022-07-31T12:06:42.961Z,30400.00
2022-07-31T12:07:42.943Z,25440.00
2022-07-31T12:08:42.968Z,21824.00
2022-07-31T12:10:01.045Z,19680.00